createdAt,value
2023-05-05T00:04:34.736Z,5.03
2023-05-05T00:07:01.528Z,3.75
2023-05-05T00:09:28.183Z,5.57
2023-05-05T00:11:54.825Z,5.18
2023-05-05T00:14:21.384Z,5.55
2023-05-05T00:16:48.062Z,4.13
2023-05-05T00:19:14.650Z,4.50
2023-05-05T00:21:41.359Z,4.87
2023-05-05T00:24:10.139Z,5.05
2023-05-05T00:26:54.089Z,5.28
2023-05-05T00:29:21.105Z,5.43
2023-05-05T00:31:47.705Z,4.88
2023-05-05T00:34:14.278Z,4.72
2023-05-05T00:36:41.411Z,5.07
2023-05-05T00:39:08.147Z,6.38
2023-05-05T00:41:34.626Z,5.50
2023-05-05T00:44:01.403Z,5.38
2023-05-05T00:46:30.890Z,5.22
2023-05-05T00:48:57.983Z,5.97
2023-05-05T00:51:25.350Z,5.35
2023-05-05T00:53:52.339Z,5.15
2023-05-05T00:56:21.012Z,4.85
2023-05-05T00:58:48.261Z,5.53
2023-05-05T01:01:15.661Z,4.32
2023-05-05T01:03:42.585Z,4.78
2023-05-05T01:06:24.471Z,5.10
2023-05-05T01:09:12.974Z,4.80
2023-05-05T01:11:45.852Z,4.32
2023-05-05T01:14:16.984Z,5.07
2023-05-05T01:16:59.929Z,4.82
2023-05-05T01:19:54.576Z,4.87
2023-05-05T01:22:27.148Z,4.70
2023-05-05T01:25:02.805Z,4.95
2023-05-05T01:27:55.738Z,5.43
2023-05-05T01:30:50.146Z,5.95
2023-05-05T01:33:23.345Z,6.03
2023-05-05T01:35:57.789Z,5.70
2023-05-05T01:38:32.504Z,4.68
2023-05-05T01:41:08.250Z,5.78
2023-05-05T01:43:37.041Z,6.20
2023-05-05T01:46:06.195Z,6.32
2023-05-05T01:48:33.569Z,5.13
2023-05-05T01:51:05.319Z,4.53
2023-05-05T01:53:33.371Z,4.90
2023-05-05T01:56:01.934Z,5.82
2023-05-05T01:58:30.034Z,4.70
2023-05-05T02:03:56.967Z,5.40
2023-05-05T02:06:24.870Z,5.10
2023-05-05T02:08:53.342Z,4.88
2023-05-05T02:11:21.791Z,4.83
2023-05-05T02:13:50.063Z,4.55
2023-05-05T02:16:18.715Z,5.20
2023-05-05T02:18:47.381Z,4.10
2023-05-05T02:21:17.816Z,4.55
2023-05-05T02:23:51.794Z,5.10
2023-05-05T02:26:21.824Z,3.80
2023-05-05T02:28:58.602Z,4.68
2023-05-05T02:31:28.065Z,6.05
2023-05-05T02:33:57.714Z,4.65
2023-05-05T02:36:29.715Z,4.03
2023-05-05T02:39:02.398Z,3.72
2023-05-05T02:41:31.517Z,3.92
2023-05-05T02:44:02.421Z,5.60
2023-05-05T02:46:29.340Z,9.40
2023-05-05T02:48:56.122Z,4.63
2023-05-05T02:51:22.734Z,4.05
2023-05-05T02:53:49.386Z,3.58
2023-05-05T02:56:43.092Z,3.90
2023-05-05T02:59:31.175Z,3.20
2023-05-05T03:02:15.823Z,3.40
2023-05-05T03:04:48.865Z,3.40
2023-05-05T03:07:33.426Z,4.47
2023-05-05T03:10:18.673Z,5.13
2023-05-05T03:12:58.458Z,3.72
2023-05-05T03:15:37.067Z,3.30
2023-05-05T03:18:06.458Z,3.63
2023-05-05T03:20:33.403Z,3.20
2023-05-05T03:23:02.269Z,3.67
2023-05-05T03:25:48.074Z,3.03
2023-05-05T03:28:15.302Z,3.37
2023-05-05T03:30:42.726Z,2.92
2023-05-05T03:33:11.659Z,3.65
2023-05-05T03:35:38.774Z,3.15
2023-05-05T03:38:06.014Z,2.55
2023-05-05T03:40:43.563Z,2.78
2023-05-05T03:43:11.554Z,3.75
2023-05-05T03:45:38.376Z,3.60
2023-05-05T03:48:05.364Z,2.88
2023-05-05T03:50:32.021Z,3.20
2023-05-05T03:52:58.519Z,3.50
2023-05-05T03:55:25.180Z,5.35
2023-05-05T03:57:51.817Z,7.28
2023-05-05T04:00:18.760Z,7.55
2023-05-05T04:02:45.365Z,6.85
2023-05-05T04:05:12.178Z,4.40
2023-05-05T04:07:38.936Z,4.50
2023-05-05T04:10:07.146Z,4.35
2023-05-05T04:12:33.897Z,4.60
2023-05-05T04:15:00.575Z,3.50
2023-05-05T04:17:27.116Z,4.00
2023-05-05T04:19:53.808Z,4.20
2023-05-05T04:22:20.804Z,3.90
2023-05-05T04:24:47.858Z,3.85
2023-05-05T04:27:14.358Z,3.75
2023-05-05T04:29:41.387Z,3.43
2023-05-05T04:32:08.284Z,3.60
2023-05-05T04:34:35.027Z,3.72
2023-05-05T04:37:01.950Z,3.35
2023-05-05T04:39:28.554Z,4.20
2023-05-05T04:41:55.096Z,6.13
2023-05-05T04:44:21.804Z,6.95
2023-05-05T04:46:48.342Z,5.28
2023-05-05T04:49:14.907Z,4.32
2023-05-05T04:51:42.976Z,5.30
2023-05-05T04:54:09.770Z,5.23
2023-05-05T04:56:37.183Z,5.75
2023-05-05T04:59:03.903Z,7.88
2023-05-05T05:01:30.612Z,4.20
2023-05-05T05:03:57.333Z,4.30
2023-05-05T05:06:24.264Z,4.43
2023-05-05T05:08:50.708Z,4.40
2023-05-05T05:11:17.244Z,4.05
2023-05-05T05:13:43.821Z,4.03
2023-05-05T05:16:10.416Z,3.90
2023-05-05T05:18:37.031Z,3.92
2023-05-05T05:21:03.784Z,4.63
2023-05-05T05:23:30.706Z,2.75
2023-05-05T05:25:57.626Z,4.22
2023-05-05T05:28:24.286Z,3.08
2023-05-05T05:30:52.109Z,3.87
2023-05-05T05:33:19.038Z,4.43
2023-05-05T05:35:46.070Z,3.75
2023-05-05T05:38:12.685Z,4.28
2023-05-05T05:40:39.184Z,2.53
2023-05-05T05:43:05.785Z,4.60
2023-05-05T05:45:32.271Z,6.45
2023-05-05T05:47:58.801Z,4.10
2023-05-05T05:50:28.554Z,5.00
2023-05-05T05:52:55.787Z,5.85
2023-05-05T05:55:22.383Z,3.80
2023-05-05T05:57:48.934Z,6.43
2023-05-05T06:00:16.008Z,5.85
2023-05-05T06:02:42.766Z,6.28
2023-05-05T06:05:10.516Z,5.22
2023-05-05T06:07:37.024Z,5.78
2023-05-05T06:10:18.619Z,5.85
2023-05-05T06:12:50.656Z,5.57
2023-05-05T06:15:17.226Z,5.72
2023-05-05T06:17:43.760Z,4.90
2023-05-05T06:20:10.985Z,4.18
2023-05-05T06:22:37.508Z,5.00
2023-05-05T06:25:04.525Z,4.32
2023-05-05T06:27:31.050Z,4.13
2023-05-05T06:29:57.741Z,4.80
2023-05-05T06:32:24.333Z,4.10
2023-05-05T06:34:51.248Z,4.28
2023-05-05T06:37:17.893Z,5.00
2023-05-05T06:39:44.502Z,4.32
2023-05-05T06:42:11.099Z,4.07
2023-05-05T06:44:37.785Z,3.55
2023-05-05T06:47:04.327Z,3.57
2023-05-05T06:49:31.307Z,3.42
2023-05-05T06:51:57.835Z,2.65
2023-05-05T06:54:24.399Z,3.70
2023-05-05T06:56:51.004Z,4.05
2023-05-05T06:59:17.487Z,4.47
2023-05-05T07:01:44.238Z,4.20
2023-05-05T07:04:11.234Z,4.57
2023-05-05T07:06:37.910Z,3.58
2023-05-05T07:09:04.752Z,4.00
2023-05-05T07:11:31.362Z,4.40
2023-05-05T07:13:57.909Z,3.65
2023-05-05T07:16:25.283Z,3.58
2023-05-05T07:18:51.813Z,3.15
2023-05-05T07:21:18.479Z,3.28
2023-05-05T07:23:47.743Z,2.60
2023-05-05T07:26:15.311Z,2.60
2023-05-05T07:28:43.222Z,2.78
2023-05-05T07:31:09.797Z,3.03
2023-05-05T07:33:36.772Z,2.90
2023-05-05T07:36:03.817Z,2.90
2023-05-05T07:38:30.428Z,3.13
2023-05-05T07:43:51.018Z,3.25
2023-05-05T07:46:34.526Z,3.22
2023-05-05T07:49:01.694Z,3.47
2023-05-05T07:51:28.166Z,2.70
2023-05-05T07:53:56.200Z,2.90
2023-05-05T07:56:23.307Z,2.83
2023-05-05T07:58:49.945Z,2.85
2023-05-05T08:01:16.785Z,2.37
2023-05-05T08:03:43.691Z,2.03
2023-05-05T08:06:12.036Z,2.05
2023-05-05T08:09:02.125Z,2.00
2023-05-05T08:11:38.935Z,2.42
2023-05-05T08:14:07.199Z,2.42
2023-05-05T08:16:59.827Z,2.08
2023-05-05T08:19:29.587Z,2.15
2023-05-05T08:22:01.087Z,2.00
2023-05-05T08:24:28.704Z,2.15
2023-05-05T08:26:56.752Z,1.60
2023-05-05T08:29:23.918Z,1.63
2023-05-05T08:31:52.005Z,1.40
2023-05-05T08:34:18.702Z,1.48
2023-05-05T08:36:45.384Z,2.33
2023-05-05T08:39:12.350Z,1.73
2023-05-05T08:41:39.019Z,1.67
2023-05-05T08:44:05.700Z,1.20
2023-05-05T08:46:33.149Z,1.45
2023-05-05T08:49:03.888Z,1.83
2023-05-05T08:51:42.725Z,1.50
2023-05-05T08:54:17.520Z,1.02
2023-05-05T08:56:47.169Z,1.13
2023-05-05T08:59:15.646Z,4.95
2023-05-05T09:01:42.893Z,1.58
2023-05-05T09:04:10.000Z,1.00
2023-05-05T09:06:38.249Z,1.27
2023-05-05T09:12:55.539Z,1.52
2023-05-05T09:15:25.314Z,1.52
2023-05-05T09:17:51.912Z,1.37
2023-05-05T09:20:21.804Z,1.52
2023-05-05T09:22:49.012Z,1.77
2023-05-05T09:25:24.395Z,1.58
2023-05-05T09:27:52.693Z,1.50
2023-05-05T09:30:28.209Z,1.50
2023-05-05T09:32:55.972Z,1.40
2023-05-05T09:35:25.721Z,1.80
2023-05-05T09:37:56.126Z,1.23
2023-05-05T09:40:52.031Z,2.85
2023-05-05T09:43:36.556Z,1.67
2023-05-05T09:46:08.938Z,3.38
2023-05-05T09:48:36.170Z,3.10
2023-05-05T09:51:02.816Z,4.05
2023-05-05T09:53:39.628Z,6.78
2023-05-05T09:56:07.227Z,3.17
2023-05-05T09:58:33.925Z,3.53
2023-05-05T10:01:01.252Z,3.20
2023-05-05T10:03:28.176Z,3.53
2023-05-05T10:05:59.928Z,3.15
2023-05-05T10:08:34.973Z,4.23
2023-05-05T10:11:11.098Z,3.38
2023-05-05T10:13:42.028Z,4.35
2023-05-05T10:16:11.772Z,1.95
2023-05-05T10:18:46.275Z,1.00
2023-05-05T10:21:23.401Z,1.83
2023-05-05T10:23:58.278Z,2.58
2023-05-05T10:26:27.800Z,2.20
2023-05-05T10:29:04.216Z,1.30
2023-05-05T10:31:41.897Z,1.25
2023-05-05T10:34:21.822Z,0.90
2023-05-05T10:36:49.673Z,0.93
2023-05-05T10:39:20.257Z,0.80
2023-05-05T10:41:47.405Z,0.73
2023-05-05T10:44:15.142Z,1.17
2023-05-05T10:46:43.270Z,1.08
2023-05-05T10:49:28.267Z,0.50
2023-05-05T10:52:21.245Z,0.77
2023-05-05T10:55:01.318Z,0.70
2023-05-05T10:57:31.236Z,0.80
2023-05-05T10:59:57.955Z,1.05
2023-05-05T11:02:27.279Z,0.73
2023-05-05T11:05:21.494Z,1.40
2023-05-05T11:07:50.243Z,0.60
2023-05-05T11:10:21.270Z,0.77
2023-05-05T11:13:02.957Z,0.63
2023-05-05T11:15:29.854Z,0.70
2023-05-05T11:17:57.345Z,1.00
2023-05-05T11:23:31.304Z,1.05
2023-05-05T11:25:59.686Z,1.25
2023-05-05T11:28:31.602Z,1.27
2023-05-05T11:31:01.608Z,1.08
2023-05-05T11:33:37.146Z,1.33
2023-05-05T11:36:19.362Z,1.10
2023-05-05T11:39:07.837Z,1.02
2023-05-05T11:41:57.010Z,1.77
2023-05-05T11:44:33.236Z,1.70
2023-05-05T11:47:02.536Z,1.75
2023-05-05T11:49:38.073Z,2.05
2023-05-05T11:52:07.411Z,1.58
2023-05-05T11:54:40.553Z,2.90
2023-05-05T11:57:09.066Z,2.33
2023-05-05T11:59:37.480Z,3.00
2023-05-05T12:02:04.797Z,4.20
2023-05-05T12:04:32.439Z,2.60
2023-05-05T12:06:59.686Z,2.63
2023-05-05T12:09:27.631Z,2.00
2023-05-05T12:11:58.833Z,1.67
2023-05-05T12:14:25.765Z,1.48
2023-05-05T12:17:02.969Z,1.55
2023-05-05T12:19:33.286Z,1.40
2023-05-05T12:22:01.601Z,1.33
2023-05-05T12:24:28.630Z,1.60
2023-05-05T12:26:55.311Z,2.70
2023-05-05T12:29:28.991Z,1.50
2023-05-05T12:31:58.177Z,1.35
2023-05-05T12:34:25.028Z,1.55
2023-05-05T12:36:52.208Z,1.60
2023-05-05T12:39:18.860Z,1.67
2023-05-05T12:41:45.531Z,2.00
2023-05-05T12:44:12.172Z,1.88
2023-05-05T12:46:49.253Z,1.80
2023-05-05T12:49:17.076Z,2.30
2023-05-05T12:51:54.454Z,2.90
2023-05-05T12:54:23.127Z,2.22
2023-05-05T12:56:51.513Z,2.20
2023-05-05T12:59:21.040Z,2.30
2023-05-05T13:01:53.807Z,2.17
2023-05-05T13:04:23.201Z,4.32
2023-05-05T13:07:07.603Z,2.00
2023-05-05T13:09:34.702Z,2.53
2023-05-05T13:14:59.049Z,3.05
2023-05-05T13:17:25.688Z,1.93
2023-05-05T13:19:52.410Z,2.25
2023-05-05T13:22:19.135Z,2.13
2023-05-05T13:24:51.565Z,1.88
2023-05-05T13:27:19.633Z,2.78
2023-05-05T13:29:48.695Z,3.20
2023-05-05T13:38:50.997Z,2.10
2023-05-05T13:41:17.547Z,2.28
2023-05-05T13:43:44.226Z,1.92
2023-05-05T13:48:43.322Z,2.08
2023-05-05T13:51:10.477Z,1.80
2023-05-05T13:53:37.136Z,2.20
2023-05-05T13:56:04.321Z,1.30
2023-05-05T13:58:31.076Z,1.70
2023-05-05T14:00:57.969Z,1.10
2023-05-05T14:03:24.664Z,1.50
2023-05-05T14:06:01.174Z,1.20
2023-05-05T14:08:28.640Z,0.90
2023-05-05T14:10:55.217Z,0.65
2023-05-05T14:13:21.777Z,0.85
2023-05-05T14:15:50.393Z,0.60
2023-05-05T14:18:17.278Z,0.63
2023-05-05T14:20:43.832Z,0.50
2023-05-05T14:23:10.448Z,0.60
2023-05-05T14:25:37.142Z,0.50
2023-05-05T14:28:03.991Z,1.17
2023-05-05T14:30:30.822Z,1.30
2023-05-05T14:32:57.454Z,0.75
2023-05-05T14:35:24.599Z,1.10
2023-05-05T14:37:51.560Z,0.95
2023-05-05T14:40:18.126Z,0.98
2023-05-05T14:42:44.858Z,0.68
2023-05-05T14:45:11.740Z,1.10
2023-05-05T14:47:38.574Z,0.88
2023-05-05T14:50:08.796Z,1.15
2023-05-05T14:52:37.401Z,0.80
2023-05-05T14:55:04.465Z,0.70
2023-05-05T14:57:31.168Z,0.75
2023-05-05T14:59:57.898Z,1.15
2023-05-05T15:02:24.757Z,0.98
2023-05-05T15:04:53.041Z,0.80
2023-05-05T15:07:20.822Z,1.33
2023-05-05T15:09:47.587Z,1.17
2023-05-05T15:12:14.189Z,0.93
2023-05-05T15:14:40.896Z,1.13
2023-05-05T15:17:07.515Z,1.02
2023-05-05T15:19:33.992Z,1.20
2023-05-05T15:22:00.691Z,0.65
2023-05-05T15:24:27.304Z,0.80
2023-05-05T15:26:53.856Z,0.85
2023-05-05T15:29:20.832Z,1.30
2023-05-05T15:31:47.704Z,1.17
2023-05-05T15:34:14.507Z,1.00
2023-05-05T15:36:41.226Z,1.10
2023-05-05T15:39:08.094Z,1.25
2023-05-05T15:41:35.038Z,1.45
2023-05-05T15:44:03.357Z,1.02
2023-05-05T15:46:33.565Z,0.90
2023-05-05T15:49:00.568Z,0.75
2023-05-05T15:51:27.470Z,0.80
2023-05-05T15:53:54.102Z,0.82
2023-05-05T15:56:20.957Z,0.70
2023-05-05T15:58:47.553Z,0.55
2023-05-05T16:01:14.148Z,0.60
2023-05-05T16:03:41.216Z,0.75
2023-05-05T16:06:08.015Z,1.00
2023-05-05T16:08:35.090Z,0.80
2023-05-05T16:11:01.824Z,1.05
2023-05-05T16:13:28.850Z,0.63
2023-05-05T16:15:55.865Z,1.00
2023-05-05T16:18:22.473Z,2.65
2023-05-05T16:20:49.217Z,1.25
2023-05-05T16:23:15.887Z,0.80
2023-05-05T16:25:42.640Z,1.05
2023-05-05T16:28:09.401Z,0.90
2023-05-05T16:30:36.161Z,0.60
2023-05-05T16:33:03.233Z,0.90
2023-05-05T16:35:29.911Z,0.63
2023-05-05T16:37:56.588Z,0.80
2023-05-05T16:40:23.432Z,0.85
2023-05-05T16:42:50.028Z,1.02
2023-05-05T16:45:16.747Z,0.80
2023-05-05T16:47:43.311Z,0.88
2023-05-05T16:50:10.508Z,1.30
2023-05-05T16:52:37.074Z,0.60
2023-05-05T16:55:05.034Z,0.50
2023-05-05T16:57:31.976Z,0.60
2023-05-05T16:59:58.503Z,0.40
2023-05-05T17:02:30.189Z,0.47
2023-05-05T17:04:56.847Z,0.57
2023-05-05T17:07:23.594Z,0.60
2023-05-05T17:09:50.200Z,0.68
2023-05-05T17:12:16.808Z,0.55
2023-05-05T17:14:44.621Z,0.60
2023-05-05T17:17:11.409Z,0.50
2023-05-05T17:19:38.003Z,0.47
2023-05-05T17:22:04.530Z,0.50
2023-05-05T17:24:31.496Z,0.52
2023-05-05T17:26:58.402Z,0.40
2023-05-05T17:29:25.005Z,0.60
2023-05-05T17:31:51.778Z,0.40
2023-05-05T17:34:18.519Z,0.50
2023-05-05T17:36:45.247Z,0.60
2023-05-05T17:39:11.915Z,0.70
2023-05-05T17:41:38.562Z,0.70
2023-05-05T17:44:05.260Z,0.63
2023-05-05T17:46:31.854Z,0.52
2023-05-05T17:48:58.649Z,0.70
2023-05-05T17:51:26.291Z,0.50
2023-05-05T17:53:53.175Z,0.60
2023-05-05T17:56:19.850Z,1.20
2023-05-05T17:58:46.685Z,1.00
2023-05-05T18:01:26.561Z,2.08
2023-05-05T18:03:53.507Z,1.08
2023-05-05T18:06:20.447Z,0.90
2023-05-05T18:08:47.065Z,1.05
2023-05-05T18:11:13.640Z,1.17
2023-05-05T18:13:40.301Z,0.70
2023-05-05T18:16:06.991Z,0.65
2023-05-05T18:18:33.776Z,1.05
2023-05-05T18:21:00.834Z,0.60
2023-05-05T18:23:27.469Z,1.00
2023-05-05T18:25:54.171Z,1.25
2023-05-05T18:28:20.790Z,1.00
2023-05-05T18:30:47.453Z,0.80
2023-05-05T18:33:14.080Z,1.10
2023-05-05T18:35:40.970Z,0.90
2023-05-05T18:38:07.545Z,1.27
2023-05-05T18:40:34.291Z,1.42
2023-05-05T18:43:01.996Z,1.20
2023-05-05T18:45:28.764Z,1.00
2023-05-05T18:47:56.517Z,0.82
2023-05-05T18:50:23.337Z,0.80
2023-05-05T18:52:49.867Z,1.10
2023-05-05T18:55:16.610Z,1.33
2023-05-05T18:57:43.257Z,2.53
2023-05-05T19:00:10.807Z,1.02
2023-05-05T19:02:37.489Z,1.25
2023-05-05T19:05:04.573Z,0.90
2023-05-05T19:07:35.004Z,1.30
2023-05-05T19:10:04.306Z,1.23
2023-05-05T19:12:30.974Z,1.17
2023-05-05T19:14:58.254Z,1.50
2023-05-05T19:17:25.224Z,1.80
2023-05-05T19:19:51.977Z,1.55
2023-05-05T19:22:18.689Z,2.35
2023-05-05T19:24:45.196Z,2.60
2023-05-05T19:27:15.493Z,2.63
2023-05-05T19:29:43.542Z,3.00
2023-05-05T19:32:10.224Z,1.80
2023-05-05T19:34:37.004Z,2.28
2023-05-05T19:37:03.696Z,3.00
2023-05-05T19:39:30.253Z,2.60
2023-05-05T19:41:57.036Z,2.22
2023-05-05T19:44:23.908Z,2.22
2023-05-05T19:46:52.733Z,1.60
2023-05-05T19:49:19.389Z,1.95
2023-05-05T19:51:47.598Z,1.65
2023-05-05T19:54:14.371Z,1.63
2023-05-05T19:56:40.965Z,1.60
2023-05-05T19:59:07.615Z,1.05
2023-05-05T20:01:35.432Z,1.67
2023-05-05T20:04:03.705Z,1.42
2023-05-05T20:06:30.399Z,1.90
2023-05-05T20:08:56.929Z,2.80
2023-05-05T20:11:24.927Z,2.30
2023-05-05T20:13:52.635Z,1.60
2023-05-05T20:16:19.449Z,1.95
2023-05-05T20:18:45.941Z,2.53
2023-05-05T20:21:12.717Z,1.98
2023-05-05T20:23:39.565Z,2.65
2023-05-05T20:26:06.504Z,1.52
2023-05-05T20:28:33.342Z,1.57
2023-05-05T20:31:01.019Z,1.58
2023-05-05T20:33:30.819Z,1.52
2023-05-05T20:35:57.508Z,1.80
2023-05-05T20:38:24.444Z,2.08
2023-05-05T20:40:52.163Z,1.50
2023-05-05T20:43:19.365Z,1.77
2023-05-05T20:45:46.050Z,1.98
2023-05-05T20:48:12.916Z,1.90
2023-05-05T20:50:41.686Z,1.83
2023-05-05T20:53:09.594Z,2.50
2023-05-05T20:55:36.455Z,2.13
2023-05-05T20:58:05.432Z,2.50
2023-05-05T21:00:32.418Z,1.55
2023-05-05T21:02:59.692Z,1.73
2023-05-05T21:05:26.713Z,2.20
2023-05-05T21:07:53.647Z,2.72
2023-05-05T21:10:20.542Z,2.63
2023-05-05T21:12:47.323Z,3.25
2023-05-05T21:15:13.936Z,2.83
2023-05-05T21:17:40.705Z,2.80
2023-05-05T21:20:08.193Z,2.65
2023-05-05T21:22:35.301Z,3.33
2023-05-05T21:25:11.426Z,2.90
2023-05-05T21:27:38.030Z,4.75
2023-05-05T21:30:05.579Z,4.80
2023-05-05T21:32:32.385Z,2.47
2023-05-05T21:34:59.004Z,3.03
2023-05-05T21:37:25.990Z,2.65
2023-05-05T21:39:52.491Z,2.20
2023-05-05T21:42:19.282Z,2.47
2023-05-05T21:44:45.859Z,2.60
2023-05-05T21:47:12.374Z,2.72
2023-05-05T21:49:39.034Z,3.08
2023-05-05T21:52:05.785Z,2.78
2023-05-05T21:54:32.305Z,2.43
2023-05-05T21:56:59.065Z,2.50
2023-05-05T21:59:25.712Z,3.42
2023-05-05T22:01:52.259Z,3.60
2023-05-05T22:04:18.970Z,3.72
2023-05-05T22:06:45.602Z,3.77
2023-05-05T22:09:12.221Z,3.88
2023-05-05T22:11:38.767Z,3.58
2023-05-05T22:14:05.361Z,2.83
2023-05-05T22:16:31.872Z,3.03
2023-05-05T22:18:58.413Z,3.50
2023-05-05T22:21:25.407Z,3.85
2023-05-05T22:23:51.998Z,3.22
2023-05-05T22:26:18.808Z,4.38
2023-05-05T22:28:45.485Z,3.97
2023-05-05T22:31:12.010Z,3.33
2023-05-05T22:33:39.659Z,3.25
2023-05-05T22:36:07.010Z,3.45
2023-05-05T22:38:33.645Z,4.55
2023-05-05T22:43:54.575Z,4.33
2023-05-05T22:46:21.268Z,4.28
2023-05-05T22:48:47.818Z,4.05
2023-05-05T22:54:08.598Z,4.95
2023-05-05T22:56:35.818Z,3.53
2023-05-05T22:59:02.337Z,3.20
2023-05-05T23:01:29.004Z,3.78
2023-05-05T23:03:55.702Z,3.58
2023-05-05T23:06:22.251Z,4.43
2023-05-05T23:08:49.293Z,5.20
2023-05-05T23:11:16.215Z,4.30
2023-05-05T23:13:42.807Z,4.60
2023-05-05T23:16:09.442Z,3.78
2023-05-05T23:18:36.787Z,4.70
2023-05-05T23:21:03.373Z,4.37
2023-05-05T23:23:30.740Z,4.13
2023-05-05T23:25:57.299Z,4.18
2023-05-05T23:28:24.245Z,4.47
2023-05-05T23:30:51.050Z,4.57
2023-05-05T23:33:17.934Z,4.70
2023-05-05T23:35:45.593Z,4.40
2023-05-05T23:38:12.110Z,5.75
2023-05-05T23:40:38.716Z,4.32
2023-05-05T23:43:05.306Z,6.15
2023-05-05T23:45:31.958Z,5.63
2023-05-05T23:47:58.578Z,5.90
2023-05-05T23:50:25.861Z,6.40
2023-05-05T23:52:52.342Z,5.28
2023-05-05T23:55:18.970Z,5.75
2023-05-05T23:57:45.497Z,5.60
